Sault Ste. Marie, Ontario

7:46 AM EDT on August 27, 2016 (GMT -0400)
IONSAULT2 | | Change Station

Elev 684 ft 46.55 °N, 84.41 °W | Updated 3 days ago

Rain
Rain
62 °F
Feels Like 62 °F
N
5
Wind Variable Wind from East
Gusts mph

Today
High -- | Low -- °F
--% Chance of Precip.
Yesterday
High -- | Low -- °F
Precip. -- in
Pressure 30.21 in
Visibility 15.0 miles
Clouds Few 6100 ft
Scattered Clouds 16000 ft
Mostly Cloudy 20000 ft
Dew Point 57 °F
Humidity 85%
Rainfall in
Snow Depth Not available.
6:51 AM 8:25 PM
Waning Crescent, 25% visible
METAR CYAM 271100Z 00000KT 15SM FEW061 SCT160 BKN200 12/11 A3019 RMK SC1AC3CI2 SLP228
Pressure 30.21 in
Visibility 15.0 miles
Clouds Few 6100 ft
Scattered Clouds 16000 ft
Mostly Cloudy 20000 ft
Dew Point 57 °F
Humidity 85%
Rainfall in
Snow Depth Not available.
6:51 AM 8:25 PM
Waning Crescent, 25% visible
METAR CYAM 271100Z 00000KT 15SM FEW061 SCT160 BKN200 12/11 A3019 RMK SC1AC3CI2 SLP228

10-Day Weather Forecast

Almanac

Astronomy

Aug. 27, 2016 Rise Set
Actual Time
Civil Twilight
Nautical Twilight
Astronomical Twilight
Moon
Length of Visible Light
Length of Day
Tomorrow will be .
, % of the Moon is Illuminated

Today's Extremes

Country Highs Country Lows

Community

WunderPhotos

Upload Photos

1,935,325 photos uploaded!

WunderBlog® & News

Nearby

Air Quality

  Air Quality AQ Index Pollutant
Not available.

Snow Depth

Station Depth Elevation

Earthquake Activity

City Distance Mag. Time & Date
Minimum magnitude displayed is 2.5.

Coastal Water Temperatures

Place Temperature

Stations

Nearby Weather Stations

Station Location Temp. Windchill Dew Point Humidity Wind Precip. Elev Updated Type
                   

Watches & Warnings

There are currently no watches in effect.